Devonport Airport


Codes: YDPO/DPO
Name: Devonport Airport
City: Devonport
Country: Australia
Elevation: 33 ft.
Website:
Wikipedia:

Photos at Devonport Airport


   Photos courtesy of SpottingLog. You can add your own sightings and photos by signing up for a free trial today.



No photos found.

Weather at Devonport Airport


Time (UTC)DescriptionTempratureWindCloud coverageVisibilityPressureHumidity
26-Jun-2024 00:00Moderate Rain8°C18 mph, N100%7572m1012hPa85%
26-Jun-2024 03:00Light Rain10°C16 mph, NW100%10000m1011hPa83%
26-Jun-2024 06:00Light Rain10°C13 mph, NW99%10000m1010hPa87%
26-Jun-2024 09:00Light Rain9°C11 mph, NW67%10000m1012hPa86%
26-Jun-2024 12:00Light Rain9°C9 mph, NW78%10000m1013hPa93%
26-Jun-2024 15:00Light Rain10°C9 mph, W100%9273m1012hPa87%
26-Jun-2024 18:00Light Rain8°C7 mph, W100%10000m1012hPa91%
26-Jun-2024 21:00Light Rain8°C7 mph, W100%10000m1013hPa90%
27-Jun-2024 00:00Light Rain11°C11 mph, W77%10000m1014hPa86%
27-Jun-2024 03:00Light Rain12°C16 mph, W9%10000m1013hPa77%
27-Jun-2024 06:00Light Rain12°C13 mph, W28%10000m1014hPa73%
27-Jun-2024 09:00Broken Clouds12°C13 mph, W76%10000m1017hPa69%
27-Jun-2024 12:00Broken Clouds10°C9 mph, W80%10000m1018hPa83%
27-Jun-2024 15:00Overcast Clouds9°C7 mph, W95%10000m1020hPa88%
27-Jun-2024 18:00Broken Clouds8°C7 mph, W65%10000m1020hPa88%
27-Jun-2024 21:00Overcast Clouds8°C4 mph, SW85%10000m1022hPa90%
28-Jun-2024 00:00Overcast Clouds9°C2 mph, S87%10000m1022hPa82%
28-Jun-2024 03:00Overcast Clouds12°C2 mph, N100%10000m1021hPa74%
28-Jun-2024 06:00Overcast Clouds12°C2 mph, NW97%10000m1020hPa81%
28-Jun-2024 09:00Overcast Clouds10°C4 mph, N98%10000m1020hPa88%
28-Jun-2024 12:00Light Rain12°C13 mph, N99%10000m1019hPa87%
28-Jun-2024 15:00Light Rain13°C16 mph, NW100%10000m1017hPa78%
28-Jun-2024 18:00Light Rain12°C13 mph, NW100%8826m1016hPa86%
28-Jun-2024 21:00Moderate Rain11°C16 mph, N100%5497m1015hPa91%
29-Jun-2024 00:00Moderate Rain11°C20 mph, NW100%5882m1014hPa92%
29-Jun-2024 03:00Moderate Rain11°C18 mph, NW100%6716m1012hPa92%
29-Jun-2024 06:00Moderate Rain11°C18 mph, NW100%6061m1012hPa93%
29-Jun-2024 09:00Moderate Rain11°C11 mph, N100%3356m1011hPa95%
29-Jun-2024 12:00Moderate Rain11°C13 mph, NW100%6524m1011hPa91%
29-Jun-2024 15:00Moderate Rain12°C16 mph, NW100%5164m1009hPa93%
29-Jun-2024 18:00Moderate Rain11°C9 mph, NW100%5267m1008hPa94%
29-Jun-2024 21:00Light Rain11°C4 mph, NW100%9203m1007hPa92%
30-Jun-2024 00:00Light Rain11°C4 mph, NW100%7410m1007hPa94%
30-Jun-2024 03:00Moderate Rain11°C9 mph, NW100%10000m1006hPa86%
30-Jun-2024 06:00Light Rain11°C4 mph, NW93%10000m1005hPa83%
30-Jun-2024 09:00Light Rain9°C2 mph, SW54%10000m1005hPa89%
30-Jun-2024 12:00Light Rain8°C7 mph, SE65%10000m1005hPa91%
30-Jun-2024 15:00Light Rain8°C7 mph, SE90%10000m1004hPa93%
30-Jun-2024 18:00Light Rain7°C9 mph, SE89%10000m1005hPa94%
30-Jun-2024 21:00Overcast Clouds6°C7 mph, SE92%10000m1006hPa92%